Time;durP1;ratioP1;P1;durP2;ratioP2;P2;SDS_P1;SDS_P2;PMS_P1;PMS_P2;Temp;Humidity;BMP_temperature;BMP_pressure;BME280_temperature;BME280_humidity;BME280_pressure;Samples;Min_cycle;Max_cycle;Signal;HPM_P1;HPM_P2
2023/04/02 00:01:23;;;;;;;1.80;0.90;;;;;4.90;93221.00;;;;7396606;19;20632;-84
2023/04/02 00:03:58;;;;;;;0.80;0.80;;;;;4.90;93220.00;;;;7395651;19;20573;-84
2023/04/02 00:06:43;;;;;;;2.87;1.03;;;;;4.80;93227.00;;;;7396059;19;20478;-84
2023/04/02 00:09:20;;;;;;;5.13;1.07;;;;;5.00;93229.00;;;;7396913;19;20212;-83
2023/04/02 00:11:54;;;;;;;5.77;1.00;;;;;5.00;93236.00;;;;7397380;19;20148;-84
2023/04/02 00:14:27;;;;;;;4.23;1.10;;;;;5.10;93235.00;;;;7396640;19;20152;-85
2023/04/02 00:17:04;;;;;;;2.90;0.80;;;;;5.20;93238.00;;;;7396642;19;20129;-84
2023/04/02 00:19:39;;;;;;;0.80;0.70;;;;;5.20;93237.00;;;;7393681;19;20133;-84
2023/04/02 00:22:23;;;;;;;2.63;1.10;;;;;5.30;93234.00;;;;7395371;19;20149;-84
2023/04/02 00:24:54;;;;;;;2.63;1.00;;;;;5.10;93238.00;;;;7387734;19;20133;-84
2023/04/02 00:27:31;;;;;;;6.73;1.40;;;;;5.30;93238.00;;;;7391190;19;20219;-85
2023/04/02 00:30:10;;;;;;;1.10;0.83;;;;;5.20;93233.00;;;;7399428;19;20240;-84
2023/04/02 00:32:47;;;;;;;1.77;1.00;;;;;5.10;93234.00;;;;7404831;19;20189;-84
2023/04/02 00:35:26;;;;;;;6.30;1.20;;;;;5.10;93243.00;;;;7404647;19;20487;-84
2023/04/02 00:38:05;;;;;;;2.17;0.80;;;;;5.20;93240.00;;;;7403735;19;20169;-84
2023/04/02 00:40:37;;;;;;;1.23;0.73;;;;;5.10;93243.00;;;;7403675;19;20137;-84
2023/04/02 00:43:15;;;;;;;2.17;0.90;;;;;5.20;93244.00;;;;7403909;19;20176;-84
2023/04/02 00:45:55;;;;;;;0.63;0.60;;;;;5.10;93247.00;;;;7405074;19;20132;-85
2023/04/02 00:48:32;;;;;;;1.70;0.70;;;;;5.20;93241.00;;;;7404456;19;20133;-84
2023/04/02 00:51:16;;;;;;;0.60;0.60;;;;;5.20;93251.00;;;;7404782;19;20133;-83
2023/04/02 00:53:54;;;;;;;0.80;0.80;;;;;5.10;93242.00;;;;7405309;19;20136;-83
2023/04/02 00:56:39;;;;;;;1.40;0.70;;;;;5.00;93247.00;;;;7404532;19;20175;-83
2023/04/02 00:59:26;;;;;;;0.97;0.67;;;;;5.00;93245.00;;;;7404441;19;20216;-84
2023/04/02 01:02:21;;;;;;;0.87;0.83;;;;;5.00;93252.00;;;;7396365;19;20185;-85
2023/04/02 01:04:58;;;;;;;1.90;0.70;;;;;5.00;93253.00;;;;7405805;19;20136;-86
2023/04/02 01:08:01;;;;;;;1.27;0.73;;;;;5.10;93260.00;;;;7403951;19;20153;-86
2023/04/02 01:10:49;;;;;;;0.93;0.73;;;;;5.10;93259.00;;;;7406135;19;20186;-86
2023/04/02 01:13:32;;;;;;;1.83;0.87;;;;;5.00;93260.00;;;;7405812;19;20495;-85
2023/04/02 01:16:13;;;;;;;0.60;0.60;;;;;5.00;93268.00;;;;7405707;19;20153;-85
2023/04/02 01:18:53;;;;;;;0.60;0.60;;;;;5.10;93273.00;;;;7404896;19;20141;-86
2023/04/02 01:21:41;;;;;;;1.23;0.53;;;;;5.10;93270.00;;;;7406932;19;20154;-85
2023/04/02 01:24:16;;;;;;;0.90;0.60;;;;;5.10;93275.00;;;;7405420;19;20133;-86
2023/04/02 01:27:14;;;;;;;0.50;0.50;;;;;5.10;93283.00;;;;7405012;19;20498;-86
2023/04/02 01:29:56;;;;;;;1.80;0.50;;;;;5.10;93276.00;;;;7405764;19;20468;-85
2023/04/02 01:32:27;;;;;;;0.50;0.47;;;;;5.10;93280.00;;;;7402627;19;20136;-84
2023/04/02 01:35:02;;;;;;;0.40;0.40;;;;;5.00;93266.00;;;;7405421;19;20193;-86
2023/04/02 01:38:03;;;;;;;1.63;0.50;;;;;5.00;93272.00;;;;7406379;19;20224;-86
2023/04/02 01:40:48;;;;;;;0.60;0.40;;;;;5.00;93279.00;;;;7404948;19;20164;-86
2023/04/02 01:43:32;;;;;;;3.17;0.77;;;;;5.10;93276.00;;;;7402760;19;20612;-85
2023/04/02 01:46:22;;;;;;;0.90;0.40;;;;;5.00;93276.00;;;;7404431;19;20132;-85
2023/04/02 01:49:02;;;;;;;2.57;0.80;;;;;5.00;93277.00;;;;7404356;19;20181;-85
2023/04/02 01:51:41;;;;;;;0.70;0.60;;;;;5.00;93286.00;;;;7406302;19;20142;-85
2023/04/02 01:54:16;;;;;;;0.73;0.60;;;;;5.00;93282.00;;;;7404372;19;20152;-86
2023/04/02 01:56:46;;;;;;;0.63;0.37;;;;;4.90;93282.00;;;;7403522;19;20508;-86
2023/04/02 01:59:21;;;;;;;0.63;0.63;;;;;5.00;93281.00;;;;7404629;19;20657;-86
2023/04/02 02:02:04;;;;;;;1.43;0.50;;;;;4.90;93289.00;;;;7401338;19;20211;-85
2023/04/02 02:04:45;;;;;;;2.17;0.60;;;;;4.90;93288.00;;;;7404922;19;20471;-86
2023/04/02 02:07:27;;;;;;;0.60;0.60;;;;;5.00;93285.00;;;;7405070;19;20133;-86
2023/04/02 02:10:02;;;;;;;1.10;0.70;;;;;5.10;93289.00;;;;7404513;19;20612;-86
2023/04/02 02:12:30;;;;;;;1.23;0.80;;;;;5.00;93289.00;;;;7404404;19;20155;-86
2023/04/02 02:15:07;;;;;;;2.20;0.87;;;;;5.10;93297.00;;;;7405059;19;20611;-85
2023/04/02 02:17:35;;;;;;;0.80;0.80;;;;;4.90;93298.00;;;;7404279;19;20128;-85
2023/04/02 02:20:11;;;;;;;1.97;0.90;;;;;5.00;93297.00;;;;7404605;19;20159;-86
2023/04/02 02:22:47;;;;;;;1.63;0.90;;;;;5.00;93301.00;;;;7401097;19;20145;-86
2023/04/02 02:25:25;;;;;;;3.03;1.00;;;;;5.00;93307.00;;;;7403625;19;20216;-85
2023/04/02 02:28:02;;;;;;;1.80;0.60;;;;;5.00;93306.00;;;;7404338;19;20462;-86
2023/04/02 02:30:46;;;;;;;2.47;1.00;;;;;5.00;93304.00;;;;7405030;19;20133;-86
2023/04/02 02:33:24;;;;;;;0.90;0.60;;;;;5.00;93304.00;;;;7402930;19;20157;-86
2023/04/02 02:36:11;;;;;;;2.07;1.10;;;;;5.00;93304.00;;;;7402741;19;20614;-85
2023/04/02 02:38:38;;;;;;;1.03;1.00;;;;;5.20;93315.00;;;;7402700;19;20140;-86
2023/04/02 02:41:50;;;;;;;1.40;0.67;;;;;5.10;93310.00;;;;7402183;19;20149;-85
2023/04/02 02:44:33;;;;;;;2.00;0.80;;;;;5.00;93312.00;;;;7403537;19;20149;-85
2023/04/02 02:47:18;;;;;;;1.73;0.80;;;;;5.00;93309.00;;;;7400923;19;20148;-84
2023/04/02 02:49:50;;;;;;;1.33;0.70;;;;;5.00;93308.00;;;;7403761;19;20132;-86
2023/04/02 02:52:30;;;;;;;1.20;0.77;;;;;5.00;93311.00;;;;7402901;19;20605;-85
2023/04/02 02:55:11;;;;;;;4.20;0.83;;;;;5.00;93310.00;;;;7401376;19;20141;-86
2023/04/02 02:57:57;;;;;;;1.63;0.83;;;;;4.90;93323.00;;;;7402299;19;20172;-86
2023/04/02 03:00:25;;;;;;;1.73;0.60;;;;;5.00;93321.00;;;;7401853;19;20172;-85
2023/04/02 03:03:15;;;;;;;1.00;0.90;;;;;5.00;93319.00;;;;7400812;19;20181;-85
2023/04/02 03:05:49;;;;;;;2.30;1.00;;;;;5.00;93329.00;;;;7402079;19;20161;-84
2023/04/02 03:08:51;;;;;;;0.90;0.90;;;;;5.00;93332.00;;;;7400037;19;20159;-85
2023/04/02 03:11:31;;;;;;;6.13;1.30;;;;;5.00;93332.00;;;;7400826;19;20133;-85
2023/04/02 03:14:27;;;;;;;19.00;1.70;;;;;5.00;93341.00;;;;7401711;19;20153;-85
2023/04/02 03:17:03;;;;;;;4.73;1.27;;;;;5.00;93338.00;;;;7400506;19;20149;-84
2023/04/02 03:20:00;;;;;;;1.40;1.10;;;;;4.90;93332.00;;;;7400307;19;21008;-84
2023/04/02 03:22:45;;;;;;;2.47;1.10;;;;;5.00;93348.00;;;;7398186;19;20693;-85
2023/04/02 03:25:35;;;;;;;1.17;0.90;;;;;5.00;93342.00;;;;7399947;19;20168;-84
2023/04/02 03:28:22;;;;;;;1.30;0.93;;;;;4.90;93348.00;;;;7399246;19;20614;-85
2023/04/02 03:31:29;;;;;;;1.13;0.87;;;;;4.90;93352.00;;;;7400776;19;20153;-86
2023/04/02 03:34:16;;;;;;;0.70;0.70;;;;;4.80;93357.00;;;;7401147;19;20141;-85
2023/04/02 03:37:22;;;;;;;3.60;0.80;;;;;4.90;93362.00;;;;7401494;19;20144;-86
2023/04/02 03:40:42;;;;;;;11.87;1.37;;;;;4.80;93358.00;;;;7398140;19;20133;-86
2023/04/02 03:43:21;;;;;;;4.90;1.00;;;;;4.80;93359.00;;;;7401238;19;20137;-85
2023/04/02 03:46:20;;;;;;;0.90;0.80;;;;;4.80;93367.00;;;;7399592;19;20180;-86
2023/04/02 03:48:59;;;;;;;1.73;1.00;;;;;4.90;93368.00;;;;7399108;19;20150;-86
2023/04/02 03:51:42;;;;;;;2.27;0.90;;;;;4.90;93363.00;;;;7397453;19;20148;-86
2023/04/02 03:54:16;;;;;;;2.27;1.10;;;;;4.80;93373.00;;;;7399391;19;20155;-85
2023/04/02 03:56:46;;;;;;;4.20;0.87;;;;;4.90;93376.00;;;;7400031;19;20603;-85
2023/04/02 03:59:53;;;;;;;1.67;1.07;;;;;4.90;93376.00;;;;7400487;19;20145;-85
2023/04/02 04:02:48;;;;;;;2.87;0.97;;;;;4.90;93377.00;;;;7398049;19;20204;-86
2023/04/02 04:05:34;;;;;;;4.97;1.20;;;;;4.80;93387.00;;;;7397542;19;20147;-86
2023/04/02 04:08:25;;;;;;;3.03;1.13;;;;;4.80;93391.00;;;;7398622;19;20148;-85
2023/04/02 04:11:06;;;;;;;1.40;0.83;;;;;4.80;93391.00;;;;7400553;19;20152;-85
2023/04/02 04:13:43;;;;;;;3.17;1.30;;;;;5.00;93388.00;;;;7401003;19;20124;-85
2023/04/02 04:16:27;;;;;;;6.57;1.53;;;;;4.80;93396.00;;;;7399976;19;20145;-85
2023/04/02 04:19:32;;;;;;;6.57;1.57;;;;;4.90;93398.00;;;;7399185;19;20162;-86
2023/04/02 04:22:14;;;;;;;1.70;1.40;;;;;4.80;93399.00;;;;7396162;19;20151;-86
2023/04/02 04:24:44;;;;;;;5.13;1.30;;;;;4.90;93401.00;;;;7398560;19;20152;-85
2023/04/02 04:27:32;;;;;;;16.70;1.90;;;;;4.90;93402.00;;;;7399352;19;20511;-85
2023/04/02 04:30:21;;;;;;;7.90;1.50;;;;;4.90;93410.00;;;;7400292;19;20133;-86
2023/04/02 04:33:09;;;;;;;1.50;1.40;;;;;5.00;93415.00;;;;7398718;19;20141;-85
2023/04/02 04:35:44;;;;;;;2.37;1.70;;;;;4.90;93413.00;;;;7399300;19;20662;-85
2023/04/02 04:38:26;;;;;;;3.33;1.77;;;;;5.00;93418.00;;;;7398361;19;20144;-86
2023/04/02 04:41:00;;;;;;;2.23;1.50;;;;;4.90;93415.00;;;;7398599;19;20160;-86
2023/04/02 04:43:43;;;;;;;1.70;1.60;;;;;4.90;93417.00;;;;7398929;19;20606;-86
2023/04/02 04:46:44;;;;;;;2.00;1.80;;;;;4.90;93428.00;;;;7398834;19;20522;-86
2023/04/02 04:49:59;;;;;;;1.70;1.60;;;;;4.90;93440.00;;;;7396444;19;20128;-86
2023/04/02 04:52:38;;;;;;;1.67;1.57;;;;;4.80;93433.00;;;;7398636;19;20137;-85
2023/04/02 04:55:26;;;;;;;2.10;1.83;;;;;4.90;93433.00;;;;7399090;19;20495;-85
2023/04/02 04:58:14;;;;;;;5.20;2.00;;;;;4.80;93435.00;;;;7399219;19;20145;-85
2023/04/02 05:00:59;;;;;;;2.80;2.17;;;;;4.70;93446.00;;;;7398549;19;20172;-85
2023/04/02 05:03:45;;;;;;;4.27;2.03;;;;;4.90;93450.00;;;;7399507;19;20150;-83
2023/04/02 05:06:36;;;;;;;2.97;2.20;;;;;4.80;93448.00;;;;7398974;19;20153;-83
2023/04/02 05:09:34;;;;;;;2.40;2.00;;;;;4.80;93457.00;;;;7388061;19;20129;-83
2023/04/02 05:12:17;;;;;;;4.37;2.53;;;;;4.80;93451.00;;;;7399127;19;20168;-83
2023/04/02 05:15:19;;;;;;;2.80;2.40;;;;;4.90;93456.00;;;;7397752;19;20464;-83
2023/04/02 05:18:17;;;;;;;3.63;2.90;;;;;4.80;93458.00;;;;7401539;19;20152;-82
2023/04/02 05:21:02;;;;;;;4.27;2.30;;;;;4.70;93464.00;;;;7405759;19;20482;-83
2023/04/02 05:24:01;;;;;;;2.40;2.00;;;;;4.90;93461.00;;;;7405385;19;20532;-83
2023/04/02 05:26:39;;;;;;;3.27;2.23;;;;;4.80;93474.00;;;;7408076;19;20180;-83
2023/04/02 05:29:27;;;;;;;5.27;2.50;;;;;4.80;93465.00;;;;7407087;19;20148;-83
2023/04/02 05:32:18;;;;;;;2.77;2.53;;;;;4.80;93472.00;;;;7408481;19;20565;-84
2023/04/02 05:34:55;;;;;;;2.27;1.90;;;;;4.90;93469.00;;;;7411963;19;20604;-84
2023/04/02 05:37:28;;;;;;;4.03;2.40;;;;;4.80;93473.00;;;;7410054;19;20165;-84
2023/04/02 05:40:20;;;;;;;3.80;2.47;;;;;5.00;93485.00;;;;7409366;19;20177;-88
2023/04/02 05:42:56;;;;;;;4.90;2.50;;;;;4.90;93479.00;;;;7409250;19;20459;-88
2023/04/02 05:45:37;;;;;;;6.57;2.73;;;;;4.90;93485.00;;;;7407909;19;20610;-88
2023/04/02 05:48:17;;;;;;;9.70;2.83;;;;;4.90;93494.00;;;;7405552;19;20517;-88
2023/04/02 05:50:54;;;;;;;2.87;2.30;;;;;4.90;93491.00;;;;7407608;19;20137;-88
2023/04/02 05:53:36;;;;;;;4.17;2.20;;;;;5.00;93493.00;;;;7409721;19;20140;-88
2023/04/02 05:56:17;;;;;;;4.77;2.33;;;;;5.00;93502.00;;;;7414353;19;20125;-88
2023/04/02 05:58:56;;;;;;;4.67;2.30;;;;;5.00;93499.00;;;;7418355;19;20144;-87
2023/04/02 06:01:51;;;;;;;3.83;2.43;;;;;5.00;93506.00;;;;7417005;19;20188;-87
2023/04/02 06:04:35;;;;;;;2.30;2.10;;;;;5.00;93509.00;;;;7419057;19;20189;-87
2023/04/02 06:07:31;;;;;;;4.37;2.27;;;;;5.00;93510.00;;;;7408556;19;20162;-87
2023/04/02 06:10:06;;;;;;;5.47;2.03;;;;;5.10;93514.00;;;;7405186;19;20121;-88
2023/04/02 06:13:02;;;;;;;3.93;2.30;;;;;5.10;93514.00;;;;7406343;19;20117;-88
2023/04/02 06:15:37;;;;;;;2.53;2.07;;;;;5.10;93521.00;;;;7404768;19;20125;-87
2023/04/02 06:18:12;;;;;;;4.67;2.20;;;;;5.10;93526.00;;;;7404862;19;20129;-87
2023/04/02 06:20:47;;;;;;;5.00;2.20;;;;;5.10;93533.00;;;;7404338;19;20143;-87
2023/04/02 06:23:31;;;;;;;2.40;2.20;;;;;5.10;93530.00;;;;7405369;19;20639;-88
2023/04/02 06:26:30;;;;;;;4.33;2.40;;;;;5.10;93525.00;;;;7405494;19;20152;-88
2023/04/02 06:29:22;;;;;;;3.37;2.27;;;;;5.20;93538.00;;;;7400819;19;20179;-88
2023/04/02 06:32:01;;;;;;;3.00;1.90;;;;;5.10;93541.00;;;;7403662;19;20526;-88
2023/04/02 06:34:30;;;;;;;2.00;1.80;;;;;5.30;93535.00;;;;7402565;19;20137;-87
2023/04/02 06:37:13;;;;;;;3.13;1.97;;;;;5.20;93540.00;;;;7404255;19;20133;-88
2023/04/02 06:39:40;;;;;;;2.73;1.90;;;;;5.30;93549.00;;;;7403250;19;20129;-88
2023/04/02 06:42:22;;;;;;;5.07;1.70;;;;;5.30;93550.00;;;;7404213;19;20220;-87
2023/04/02 06:44:50;;;;;;;4.57;2.00;;;;;5.30;93557.00;;;;7405551;19;20214;-87
2023/04/02 06:47:43;;;;;;;4.13;1.50;;;;;5.40;93558.00;;;;7404495;19;20129;-88
2023/04/02 06:50:30;;;;;;;2.67;2.13;;;;;5.50;93560.00;;;;7404840;19;20133;-87
2023/04/02 06:53:08;;;;;;;2.13;1.77;;;;;5.50;93570.00;;;;7403325;19;20133;-87
2023/04/02 06:56:18;;;;;;;3.23;1.50;;;;;5.60;93575.00;;;;7403599;19;20133;-88
2023/04/02 06:58:53;;;;;;;2.33;1.50;;;;;5.60;93576.00;;;;7402985;19;20490;-88
2023/04/02 07:01:43;;;;;;;2.13;1.83;;;;;5.80;93583.00;;;;7401365;19;20179;-87
2023/04/02 07:04:26;;;;;;;1.70;1.60;;;;;5.70;93585.00;;;;7401061;19;20133;-88
2023/04/02 07:07:01;;;;;;;1.70;1.60;;;;;5.70;93590.00;;;;7404694;19;20140;-87
2023/04/02 07:09:31;;;;;;;1.63;1.40;;;;;5.80;93591.00;;;;7400737;19;20152;-88
2023/04/02 07:12:21;;;;;;;1.83;1.73;;;;;5.90;93603.00;;;;7403211;19;20609;-88
2023/04/02 07:14:48;;;;;;;1.63;1.53;;;;;5.90;93600.00;;;;7404212;19;20200;-89
2023/04/02 07:17:23;;;;;;;2.30;1.50;;;;;5.80;93609.00;;;;7402969;19;20168;-88
2023/04/02 07:19:51;;;;;;;4.07;1.90;;;;;6.00;93609.00;;;;7404139;19;20588;-87
2023/04/02 07:22:25;;;;;;;2.13;1.60;;;;;5.90;93611.00;;;;7399712;19;21043;-88
2023/04/02 07:24:53;;;;;;;3.10;1.40;;;;;5.90;93613.00;;;;7403019;19;20121;-88
2023/04/02 07:27:29;;;;;;;2.00;1.70;;;;;6.10;93616.00;;;;7402175;19;20133;-88
2023/04/02 07:30:04;;;;;;;1.57;1.47;;;;;6.10;93625.00;;;;7401875;19;20125;-88
2023/04/02 07:32:39;;;;;;;2.43;1.50;;;;;6.20;93624.00;;;;7403190;19;20500;-88
2023/04/02 07:35:13;;;;;;;1.47;1.17;;;;;6.10;93621.00;;;;7402634;19;20125;-88
2023/04/02 07:37:41;;;;;;;0.97;0.87;;;;;6.10;93622.00;;;;7401427;19;20611;-88
2023/04/02 07:40:20;;;;;;;1.20;1.10;;;;;6.30;93622.00;;;;7402657;19;20135;-88
2023/04/02 07:42:49;;;;;;;1.57;1.27;;;;;6.40;93627.00;;;;7401078;19;20144;-90
2023/04/02 07:45:22;;;;;;;0.97;0.90;;;;;6.70;93628.00;;;;7403117;19;20149;-90
2023/04/02 07:47:50;;;;;;;1.00;0.80;;;;;6.90;93630.00;;;;7403161;19;20132;-90
2023/04/02 07:50:27;;;;;;;1.10;0.63;;;;;7.00;93632.00;;;;7399554;19;20488;-89
2023/04/02 07:52:54;;;;;;;0.90;0.70;;;;;7.10;93633.00;;;;7400223;19;20137;-91
2023/04/02 07:55:29;;;;;;;0.70;0.70;;;;;7.00;93643.00;;;;7402217;19;20147;-90
2023/04/02 07:58:04;;;;;;;0.60;0.60;;;;;7.20;93642.00;;;;7402653;19;20642;-90
2023/04/02 08:00:32;;;;;;;0.73;0.73;;;;;7.10;93649.00;;;;7400196;19;20169;-89
2023/04/02 08:03:12;;;;;;;1.03;0.53;;;;;7.20;93643.00;;;;7401138;19;20160;-91
2023/04/02 08:05:42;;;;;;;0.40;0.30;;;;;7.50;93640.00;;;;7401319;19;20155;-90
2023/04/02 08:08:16;;;;;;;0.30;0.30;;;;;7.50;93638.00;;;;7400155;19;20148;-90
2023/04/02 08:10:44;;;;;;;2.07;0.30;;;;;7.20;93642.00;;;;7402639;19;20651;-90
2023/04/02 08:13:18;;;;;;;0.40;0.40;;;;;7.30;93647.00;;;;7402146;19;20153;-90
2023/04/02 08:15:46;;;;;;;0.40;0.30;;;;;7.60;93636.00;;;;7397944;19;20152;-89
2023/04/02 08:18:14;;;;;;;0.30;0.20;;;;;7.60;93647.00;;;;7398930;19;20148;-89
2023/04/02 08:20:47;;;;;;;0.27;0.20;;;;;7.50;93653.00;;;;7398708;19;20116;-91
2023/04/02 08:23:22;;;;;;;0.30;0.30;;;;;7.80;93659.00;;;;7396832;19;20137;-90
2023/04/02 08:25:58;;;;;;;0.77;0.37;;;;;7.80;93653.00;;;;7399233;19;20125;-91
2023/04/02 08:28:26;;;;;;;0.20;0.20;;;;;7.90;93659.00;;;;7398919;19;20137;-91
2023/04/02 08:31:01;;;;;;;0.20;0.20;;;;;8.20;93664.00;;;;7399011;19;20207;-90
2023/04/02 08:33:29;;;;;;;0.13;0.13;;;;;8.50;93676.00;;;;7398083;19;20152;-91
2023/04/02 08:36:04;;;;;;;0.10;0.10;;;;;8.30;93674.00;;;;7397452;19;20615;-90
2023/04/02 08:38:41;;;;;;;0.33;0.30;;;;;8.60;93681.00;;;;7396812;19;20140;-91
2023/04/02 08:41:31;;;;;;;0.00;0.00;;;;;8.60;93690.00;;;;7400287;19;20133;-91
2023/04/02 08:44:27;;;;;;;0.05;0.00;;;;;8.50;93685.00;;;;7399541;19;20152;-89
2023/04/02 08:47:05;;;;;;;0.60;0.30;;;;;8.80;93683.00;;;;7401179;19;20160;-89
2023/04/02 08:50:06;;;;;;;0.10;0.10;;;;;9.20;93686.00;;;;7401246;19;20141;-89
2023/04/02 08:52:41;;;;;;;0.45;0.28;;;;;9.20;93691.00;;;;7407357;19;20132;-83
2023/04/02 08:55:41;;;;;;;0.05;0.05;;;;;8.70;93697.00;;;;7407401;19;20152;-86
2023/04/02 08:58:34;;;;;;;0.00;0.00;;;;;9.40;93706.00;;;;7407282;19;20148;-89
2023/04/02 09:01:47;;;;;;;1.25;0.20;;;;;9.10;93715.00;;;;7404516;19;20690;-87
2023/04/02 09:04:28;;;;;;;1.65;0.60;;;;;8.70;93727.00;;;;7401929;19;20485;-89
2023/04/02 09:06:58;;;;;;;0.52;0.10;;;;;9.00;93725.00;;;;7406295;19;20163;-88
2023/04/02 09:09:36;;;;;;;0.10;0.10;;;;;8.30;93728.00;;;;7406194;19;20203;-89
2023/04/02 09:12:28;;;;;;;0.10;0.10;;;;;8.40;93737.00;;;;7407937;19;20155;-86
2023/04/02 09:15:25;;;;;;;0.80;0.60;;;;;8.00;93744.00;;;;7404814;19;20537;-86
2023/04/02 09:18:15;;;;;;;0.20;0.10;;;;;8.30;93752.00;;;;7404791;19;20158;-85
2023/04/02 09:20:51;;;;;;;0.50;0.20;;;;;8.60;93753.00;;;;7407714;19;20144;-90
2023/04/02 09:23:29;;;;;;;0.00;0.00;;;;;9.10;93750.00;;;;7404636;19;20132;-90
2023/04/02 09:26:21;;;;;;;0.20;0.10;;;;;9.20;93761.00;;;;7412218;19;20136;-90
2023/04/02 09:29:00;;;;;;;0.10;0.10;;;;;9.10;93762.00;;;;7405878;19;20147;-89
2023/04/02 09:31:58;;;;;;;0.17;0.00;;;;;8.70;93754.00;;;;7406858;19;20207;-87
2023/04/02 09:34:31;;;;;;;0.10;0.10;;;;;8.90;93771.00;;;;7406849;19;20181;-86
2023/04/02 09:37:18;;;;;;;0.00;0.00;;;;;8.70;93762.00;;;;7405416;19;20160;-86
2023/04/02 09:40:08;;;;;;;0.40;0.20;;;;;9.00;93769.00;;;;7405927;19;20137;-87
2023/04/02 09:42:45;;;;;;;0.10;0.10;;;;;9.10;93773.00;;;;7406358;19;20160;-87
2023/04/02 09:45:24;;;;;;;0.00;0.00;;;;;9.10;93781.00;;;;7409370;19;20137;-87
2023/04/02 09:47:59;;;;;;;0.10;0.05;;;;;8.70;93779.00;;;;7405585;19;20562;-87
2023/04/02 09:50:31;;;;;;;0.15;0.15;;;;;8.10;93786.00;;;;7405097;19;20153;-88
2023/04/02 09:53:32;;;;;;;0.20;0.20;;;;;8.20;93790.00;;;;7403637;19;20144;-88
2023/04/02 09:56:12;;;;;;;0.10;0.05;;;;;8.30;93796.00;;;;7407856;19;20137;-88
2023/04/02 09:59:20;;;;;;;0.10;0.10;;;;;7.90;93796.00;;;;7404389;19;20196;-89
2023/04/02 10:02:06;;;;;;;0.70;0.20;;;;;8.60;93800.00;;;;7400261;19;20543;-87
2023/04/02 10:04:47;;;;;;;0.03;0.03;;;;;7.90;93806.00;;;;7403103;19;20500;-88
2023/04/02 10:07:30;;;;;;;0.15;0.10;;;;;7.90;93805.00;;;;7401166;19;20148;-89
2023/04/02 10:10:03;;;;;;;0.80;0.20;;;;;7.70;93810.00;;;;7404248;19;20124;-87
2023/04/02 10:12:42;;;;;;;0.10;0.10;;;;;7.80;93806.00;;;;7405581;19;20141;-88
2023/04/02 10:15:21;;;;;;;0.10;0.10;;;;;8.00;93816.00;;;;7403021;19;20132;-89
2023/04/02 10:18:19;;;;;;;0.20;0.10;;;;;7.80;93822.00;;;;7405278;19;20478;-89
2023/04/02 10:20:51;;;;;;;0.00;0.00;;;;;8.00;93816.00;;;;7402829;19;20221;-87
2023/04/02 10:23:28;;;;;;;0.20;0.10;;;;;8.70;93820.00;;;;7398675;19;20152;-88
2023/04/02 10:26:19;;;;;;;0.38;0.38;;;;;9.10;93830.00;;;;7402424;19;20133;-89
2023/04/02 10:29:01;;;;;;;0.35;0.35;;;;;9.50;93836.00;;;;7405616;19;20137;-88
2023/04/02 10:31:59;;;;;;;2.95;2.65;;;;;9.60;93840.00;;;;7403448;19;20140;-87
2023/04/02 10:34:43;;;;;;;0.82;0.70;;;;;9.30;93834.00;;;;7404773;19;20540;-90
2023/04/02 10:37:32;;;;;;;0.82;0.82;;;;;9.30;93839.00;;;;7403611;19;20137;-86
2023/04/02 10:40:25;;;;;;;1.67;1.58;;;;;9.70;93835.00;;;;7403037;19;20137;-88
2023/04/02 10:43:18;;;;;;;4.47;1.33;;;;;9.80;93832.00;;;;7403630;19;20168;-89
2023/04/02 10:46:26;;;;;;;0.73;0.60;;;;;10.20;93834.00;;;;7403678;19;20168;-88
2023/04/02 10:49:09;;;;;;;1.05;0.52;;;;;9.70;93839.00;;;;7403824;19;20462;-89
2023/04/02 10:52:04;;;;;;;1.27;1.17;;;;;10.20;93835.00;;;;7402628;19;20148;-89
2023/04/02 10:54:51;;;;;;;2.42;1.20;;;;;10.50;93848.00;;;;7405965;19;20149;-88
2023/04/02 10:57:36;;;;;;;1.85;0.60;;;;;10.10;93849.00;;;;7405122;19;20143;-88
2023/04/02 11:00:23;;;;;;;1.00;1.00;;;;;10.30;93860.00;;;;7402554;19;20149;-88
2023/04/02 11:03:23;;;;;;;1.58;1.48;;;;;10.10;93860.00;;;;7401027;19;20220;-86
2023/04/02 11:06:03;;;;;;;2.97;1.02;;;;;10.20;93858.00;;;;7402167;19;20125;-87
2023/04/02 11:08:47;;;;;;;0.82;0.82;;;;;10.00;93866.00;;;;7401538;19;20666;-86
2023/04/02 11:11:30;;;;;;;0.77;0.77;;;;;10.10;93868.00;;;;7401720;19;20147;-88
2023/04/02 11:14:04;;;;;;;0.38;0.38;;;;;10.30;93870.00;;;;7400965;19;20165;-90
2023/04/02 11:16:44;;;;;;;0.80;0.80;;;;;10.60;93870.00;;;;7403686;19;20136;-89
2023/04/02 11:19:15;;;;;;;0.80;0.70;;;;;10.70;93873.00;;;;7401412;19;20144;-86
2023/04/02 11:22:13;;;;;;;0.20;0.20;;;;;10.70;93872.00;;;;7401800;19;20135;-88
2023/04/02 11:24:54;;;;;;;1.30;1.13;;;;;10.70;93872.00;;;;7403666;19;20133;-87
2023/04/02 11:27:31;;;;;;;1.75;1.10;;;;;11.00;93879.00;;;;7402439;19;20592;-87
2023/04/02 11:30:15;;;;;;;0.65;0.65;;;;;10.50;93891.00;;;;7401111;19;20492;-87
2023/04/02 11:32:48;;;;;;;0.77;0.40;;;;;10.80;93887.00;;;;7404888;19;20240;-88
2023/04/02 11:35:34;;;;;;;2.03;0.90;;;;;10.50;93891.00;;;;7403319;19;20144;-87
2023/04/02 11:38:22;;;;;;;0.35;0.35;;;;;10.20;93896.00;;;;7400663;19;20140;-88
2023/04/02 11:40:58;;;;;;;0.50;0.50;;;;;10.10;93904.00;;;;7398167;19;20200;-88
2023/04/02 11:43:34;;;;;;;4.20;1.92;;;;;10.10;93907.00;;;;7402140;19;20144;-87
2023/04/02 11:46:35;;;;;;;1.77;1.55;;;;;9.90;93907.00;;;;7401476;19;20141;-87
2023/04/02 11:49:32;;;;;;;1.17;1.08;;;;;9.70;93913.00;;;;7399976;19;20497;-87
2023/04/02 11:52:22;;;;;;;1.00;0.70;;;;;9.40;93907.00;;;;7401523;19;20132;-87
2023/04/02 11:55:18;;;;;;;1.30;0.60;;;;;9.30;93927.00;;;;7398292;19;20141;-89
2023/04/02 11:58:08;;;;;;;1.27;0.88;;;;;9.10;93928.00;;;;7400254;19;20149;-88
2023/04/02 12:01:06;;;;;;;2.00;0.90;;;;;9.40;93927.00;;;;7399321;19;20197;-88
2023/04/02 12:03:59;;;;;;;0.85;0.70;;;;;9.40;93925.00;;;;7397260;19;20220;-88
2023/04/02 12:07:02;;;;;;;1.67;1.58;;;;;9.30;93932.00;;;;7399461;19;20128;-88
2023/04/02 12:09:54;;;;;;;0.93;0.90;;;;;9.70;93927.00;;;;7400166;19;20212;-87
2023/04/02 12:12:39;;;;;;;1.00;0.65;;;;;10.10;93933.00;;;;7399135;19;20144;-87
2023/04/02 12:15:35;;;;;;;0.68;0.60;;;;;10.60;93927.00;;;;7400736;19;20400;-87
2023/04/02 12:18:24;;;;;;;1.05;0.60;;;;;10.90;93932.00;;;;7402919;19;20125;-87
2023/04/02 12:21:01;;;;;;;2.13;1.92;;;;;11.00;93928.00;;;;7401878;19;20132;-87
2023/04/02 12:23:37;;;;;;;1.77;1.08;;;;;10.70;93932.00;;;;7399420;19;20175;-87
2023/04/02 12:26:31;;;;;;;1.13;0.88;;;;;11.30;93931.00;;;;7403345;19;20144;-87
2023/04/02 12:29:23;;;;;;;1.10;1.00;;;;;11.00;93933.00;;;;7407461;19;20148;-87
2023/04/02 12:31:59;;;;;;;0.80;0.80;;;;;11.10;93933.00;;;;7403484;19;20148;-88
2023/04/02 12:34:33;;;;;;;2.38;2.17;;;;;11.30;93944.00;;;;7406542;19;20173;-87
2023/04/02 12:37:21;;;;;;;4.53;3.65;;;;;11.40;93953.00;;;;7405755;19;20239;-87
2023/04/02 12:40:05;;;;;;;1.45;1.35;;;;;11.20;93955.00;;;;7403879;19;20452;-87
2023/04/02 12:42:40;;;;;;;3.72;2.50;;;;;11.10;93957.00;;;;7406741;19;20143;-83
2023/04/02 12:45:32;;;;;;;1.45;1.30;;;;;10.40;93962.00;;;;7397993;19;20149;-83
2023/04/02 12:48:09;;;;;;;4.57;3.30;;;;;10.60;93959.00;;;;7401295;19;20223;-83
2023/04/02 12:50:44;;;;;;;10.35;8.48;;;;;10.20;93960.00;;;;7400612;19;20509;-83
2023/04/02 12:53:48;;;;;;;3.10;2.20;;;;;10.20;93960.00;;;;7401142;19;20152;-84
2023/04/02 12:56:21;;;;;;;9.30;6.47;;;;;10.40;93968.00;;;;7399586;19;20600;-84
2023/04/02 12:58:58;;;;;;;6.53;4.20;;;;;10.30;93968.00;;;;7399451;19;20758;-85
2023/04/02 13:01:30;;;;;;;11.18;8.00;;;;;10.40;93968.00;;;;7398858;19;20141;-85
2023/04/02 13:04:17;;;;;;;16.00;10.27;;;;;10.30;93972.00;;;;7398300;19;20168;-84
2023/04/02 13:06:51;;;;;;;6.00;5.40;;;;;10.50;93971.00;;;;7400018;19;20176;-84
2023/04/02 13:09:33;;;;;;;2.35;1.60;;;;;10.30;93970.00;;;;7399229;19;20512;-84
2023/04/02 13:12:02;;;;;;;1.77;1.58;;;;;10.50;93968.00;;;;7394211;19;20151;-84
2023/04/02 13:14:37;;;;;;;1.70;1.30;;;;;10.10;93969.00;;;;7398847;19;20172;-84
2023/04/02 13:17:40;;;;;;;1.20;1.10;;;;;10.40;93978.00;;;;7397653;19;20495;-83
2023/04/02 13:20:33;;;;;;;1.75;1.30;;;;;10.10;93976.00;;;;7403579;19;20139;-84
2023/04/02 13:23:28;;;;;;;1.30;1.10;;;;;9.90;93985.00;;;;7401946;19;20152;-84
2023/04/02 13:26:23;;;;;;;0.75;0.75;;;;;9.30;93982.00;;;;7402003;19;20162;-83
2023/04/02 13:29:16;;;;;;;1.90;0.80;;;;;9.30;93976.00;;;;7402753;19;20224;-83
2023/04/02 13:31:53;;;;;;;0.90;0.70;;;;;9.00;93989.00;;;;7399849;19;20133;-83
2023/04/02 13:34:28;;;;;;;1.30;1.20;;;;;8.90;93995.00;;;;7402190;19;20133;-84
2023/04/02 13:36:56;;;;;;;1.40;1.30;;;;;9.00;93993.00;;;;7402675;19;20512;-84
2023/04/02 13:39:32;;;;;;;2.63;1.20;;;;;8.70;93993.00;;;;7403278;19;20195;-83
2023/04/02 13:42:07;;;;;;;0.77;0.77;;;;;8.60;93997.00;;;;7401941;19;20149;-83
2023/04/02 13:44:38;;;;;;;1.10;0.82;;;;;8.60;93992.00;;;;7403089;19;20160;-83